Cherrycreek, Mississippi
Current Conditions -  °F | °C
As of 8:53 AM on Thursday 18 Dec 2014 (Local Time) from KTUP Reporting Station
Overcast Overcast  
Wind Chill: 37°   Ceiling: 8000
Heat Index: 41°   Visibility: 10mi
Dew Point: 36°   Wind: 6mph
Humidity: 82%   Direction: 50°NE
Pressure: 30.25"   Gusts: NA
Location:  34.4333°N, 88.8629°W
Report Text: KTUP 181453Z 05005KT 10SM FEW044 SCT060 OVC080 05/02 A3025 RMK AO2 RAB01E10 SLP243 P0000 60002 T00500022 53011
Loading
Personal Weather Stations






























Interactive Weather Map New forecast layout! Learn more

10-Day Weather Forecast

Advertisements
Track Severe Weather on mobile